Latest Weather Observations for Mount William

IDV60801

Issued at 11:31 pm EST Tuesday 4 August 2015 (issued every 30 minutes, with the page automatically refreshed every 10 minutes)

About weather observations | Map of weather stations | Latest weather observations for VIC | Other Formats
Station Details ID: 079103 Name: MOUNT WILLIAM Lat: -37.30 Lon: 142.60 Height: 1150.0 m
Data from the previous 72 hours. | See also: Recent months at Mount William
Date/Time
EST
Temp
°C
App
Temp
°C
Dew
Point
Rel
Hum
%
Delta-T
°C
Wind Press
QNH
hPa
Press
MSL
hPa
Rain
since 9 am
mm
Dir
 
Spd
km/h
Gust
km/h
Spd
kts
Gust
kts
04/11:30pm 1.8 -4.1 1.7 99 0.0 WSW 22 54 12 29 - - 9.4
04/11:09pm 1.8 -5.2 1.7 99 0.0 WSW 28 50 15 27 - - 8.8
04/11:00pm 1.9 -4.0 1.8 99 0.0 W 22 44 12 24 - - 8.4
04/10:30pm 1.8 -5.2 1.7 99 0.0 WSW 28 54 15 29 - - 7.0
04/10:00pm 1.6 -5.9 1.5 99 0.0 W 30 50 16 27 - - 5.8
04/09:30pm 1.5 -6.5 1.4 99 0.0 W 33 54 18 29 - - 4.8
04/09:01pm 1.3 -6.8 1.2 99 0.0 W 33 54 18 29 - - 4.8
04/09:00pm 1.3 -6.8 1.2 99 0.0 W 33 50 18 27 - - 4.8
04/08:30pm 1.1 -7.0 1.0 99 0.0 W 33 59 18 32 - - 4.4
04/08:00pm 1.0 -6.2 0.9 99 0.0 W 28 52 15 28 - - 4.2
04/07:30pm 1.4 -6.5 1.3 99 0.0 W 32 52 17 28 - - 4.2
04/07:00pm 1.6 -5.9 1.5 99 0.0 W 30 50 16 27 - - 3.8
04/06:30pm 1.5 -6.3 1.4 99 0.0 W 32 54 17 29 - - 3.4
04/06:01pm 1.5 -6.0 1.4 99 0.0 W 30 48 16 26 - - 2.8
04/06:00pm 1.4 -6.1 1.3 99 0.0 W 30 43 16 23 - - 2.8
04/05:33pm 1.3 -6.8 1.2 99 0.0 W 33 54 18 29 - - 2.8
04/05:30pm 1.3 -6.6 1.2 99 0.0 W 32 48 17 26 - - 2.8
04/05:19pm 1.2 -5.9 1.1 99 0.0 W 28 48 15 26 - - 2.8
04/05:00pm 1.1 -6.4 1.0 99 0.0 W 30 46 16 25 - - 2.6
04/04:30pm 1.1 -7.0 1.0 99 0.0 W 33 54 18 29 - - 2.4
04/04:22pm 1.2 -6.9 1.1 99 0.0 W 33 54 18 29 - - 2.2
04/04:00pm 1.4 -6.5 1.3 99 0.0 W 32 48 17 26 - - 1.2
04/03:30pm 1.1 -6.8 1.0 99 0.0 W 32 46 17 25 - - 0.8
04/03:00pm 0.7 -6.1 0.6 99 0.0 WSW 26 39 14 21 - - 0.8
04/02:30pm 0.7 -6.1 0.6 99 0.0 W 26 39 14 21 - - 0.4
04/02:00pm 0.3 -6.2 0.2 99 0.0 WSW 24 44 13 24 - - 0.2
04/01:34pm 0.0 -7.3 -0.1 99 0.0 WSW 28 54 15 29 - - 0.2
04/01:30pm 0.0 -6.9 -0.1 99 0.0 WSW 26 43 14 23 - - 0.2
04/01:00pm 0.0 -6.6 -0.1 99 0.0 WSW 24 37 13 20 - - 0.2
04/12:30pm -0.1 -5.7 -0.2 99 0.0 WSW 19 33 10 18 - - 0.2
04/12:00pm -0.2 -5.5 -0.3 99 0.0 WSW 17 28 9 15 - - 0.2
04/11:30am -0.5 -6.2 -0.6 99 0.0 W 19 26 10 14 - - 0.2
04/11:00am -0.5 -5.4 -0.6 99 0.0 W 15 24 8 13 - - 0.2
04/10:30am -0.8 -6.5 -0.9 99 0.0 W 19 30 10 16 - - 0.2
04/10:00am -1.0 -6.9 -1.1 99 0.0 W 20 28 11 15 - - 0.0
04/09:30am -1.3 -7.3 -1.4 99 0.0 W 20 32 11 17 - - 0.0
04/09:00am -1.4 -7.2 -1.5 99 0.0 W 19 30 10 16 - - 2.8
04/08:30am -1.6 -7.0 -1.7 99 0.0 W 17 24 9 13 - - 2.8
04/08:00am -1.9 -7.0 -2.0 99 -0.1 W 15 22 8 12 - - 2.8
04/07:30am -2.0 -7.1 -2.1 99 -0.1 W 15 22 8 12 - - 2.8
04/07:00am -2.1 -7.6 -2.2 99 -0.1 W 17 24 9 13 - - 2.8
04/06:30am -2.2 -7.0 -2.3 99 -0.1 W 13 24 7 13 - - 2.8
04/06:00am -2.3 -7.8 -2.4 99 -0.1 W 17 28 9 15 - - 2.8
04/05:30am -2.3 -7.1 -2.4 99 -0.1 W 13 20 7 11 - - 2.8
04/05:00am -2.3 -7.8 -2.4 99 -0.1 W 17 24 9 13 - - 2.8
04/04:30am -2.4 -7.6 -2.5 99 -0.1 W 15 24 8 13 - - 2.8
04/04:00am -2.4 -8.0 -2.5 99 -0.1 W 17 24 9 13 - - 2.8
04/03:30am -2.5 -8.1 -2.6 99 -0.1 W 17 22 9 12 - - 2.8
04/03:00am -2.7 -8.7 -2.8 99 -0.1 W 19 24 10 13 - - 2.8
04/02:30am -2.6 -8.6 -2.7 99 -0.1 W 19 24 10 13 - - 2.8
04/02:00am -2.3 -7.5 -2.4 99 -0.1 W 15 20 8 11 - - 2.8
04/01:30am -2.2 -7.7 -2.3 99 -0.1 W 17 24 9 13 - - 2.8
04/01:00am -2.0 -6.7 -2.1 99 -0.1 W 13 22 7 12 - - 2.8
04/12:30am -2.1 -7.6 -2.2 99 -0.1 W 17 24 9 13 - - 2.8
04/12:00am -2.3 -7.8 -2.4 99 -0.1 W 17 22 9 12 - - 2.8
 
Date/Time
EST
Temp
°C
App
Temp
°C
Dew
Point
Rel
Hum
%
Delta-T
°C
Wind Press
QNH
hPa
Press
MSL
hPa
Rain
since 9 am
mm
Dir
 
Spd
km/h
Gust
km/h
Spd
kts
Gust
kts
03/11:30pm -2.3 -7.5 -2.4 99 -0.1 W 15 22 8 12 - - 2.8
03/11:00pm -2.0 -7.1 -2.1 99 -0.1 W 15 22 8 12 - - 2.8
03/10:30pm -2.1 -7.2 -2.2 99 -0.1 W 15 24 8 13 - - 2.8
03/10:00pm -2.1 -7.2 -2.2 99 -0.1 W 15 26 8 14 - - 2.8
03/09:30pm -1.9 -7.4 -2.0 99 -0.1 W 17 24 9 13 - - 2.8
03/09:00pm -1.9 -7.0 -2.0 99 -0.1 W 15 26 8 14 - - 2.8
03/08:30pm -1.9 -7.4 -2.0 99 -0.1 W 17 22 9 12 - - 2.8
03/08:00pm -2.0 -7.5 -2.1 99 -0.1 W 17 20 9 11 - - 2.8
03/07:30pm -2.0 -8.1 -2.1 99 -0.1 W 20 30 11 16 - - 2.8
03/07:00pm -2.3 -8.4 -2.4 99 -0.1 W 20 28 11 15 - - 2.8
03/06:30pm -2.2 -9.4 -2.3 99 -0.1 W 26 32 14 17 - - 2.8
03/06:00pm -1.7 -6.4 -1.8 99 0.0 W 13 24 7 13 - - 2.8
03/05:30pm -1.8 -6.5 -1.9 99 -0.1 W 13 20 7 11 - - 2.8
03/05:00pm -1.6 -7.0 -1.7 99 0.0 W 17 30 9 16 - - 2.8
03/04:30pm -1.4 -7.2 -1.5 99 0.0 W 19 32 10 17 - - 2.8
03/04:00pm -1.2 -6.2 -1.3 99 0.0 W 15 22 8 12 - - 2.8
03/03:30pm -1.1 -6.9 -1.2 99 0.0 W 19 30 10 16 - - 2.8
03/03:00pm -1.2 -7.0 -1.3 99 0.0 WSW 19 33 10 18 - - 2.8
03/02:30pm -0.8 -6.5 -0.9 99 0.0 W 19 39 10 21 - - 2.8
03/02:00pm -0.3 -5.6 -0.4 99 0.0 W 17 32 9 17 - - 2.8
03/01:30pm -1.2 -7.0 -1.3 99 0.0 W 19 33 10 18 - - 2.8
03/01:00pm -1.1 -7.1 -1.2 99 0.0 WSW 20 35 11 19 - - 2.2
03/12:30pm -1.2 -6.6 -1.3 99 0.0 WSW 17 32 9 17 - - 1.8
03/12:00pm -0.8 -6.1 -0.9 99 0.0 WSW 17 33 9 18 - - 0.2
03/11:30am -0.9 -7.6 -1.0 99 0.0 SW 24 43 13 23 - - 0.0
03/11:00am -1.0 -7.3 -1.1 99 0.0 WSW 22 43 12 23 - - 0.0
03/10:52am -1.1 -8.6 -1.2 99 0.0 WSW 28 50 15 27 - - 0.0
03/10:30am -1.3 -8.4 -1.4 99 0.0 WSW 26 46 14 25 - - 0.0
03/10:03am -1.2 -8.7 -1.3 99 0.0 WSW 28 50 15 27 - - 0.0
03/10:00am -1.0 -8.1 -1.1 99 0.0 WSW 26 44 14 24 - - 0.0
03/09:30am -1.2 -8.7 -1.3 99 0.0 WSW 28 52 15 28 - - 0.0
03/09:00am -1.2 -9.6 -1.3 99 0.0 WSW 33 56 18 30 - - 10.2
03/08:30am -1.3 -10.5 -1.4 99 0.0 WSW 37 61 20 33 - - 10.2
03/08:00am -1.2 -10.8 -1.3 99 0.0 WSW 39 63 21 34 - - 10.2
03/07:30am -0.5 -9.2 -0.6 99 0.0 WSW 35 57 19 31 - - 10.2
03/07:00am -0.6 -8.0 -0.7 99 0.0 WSW 28 50 15 27 - - 10.2
03/06:30am -0.7 -10.2 -0.8 99 0.0 W 39 70 21 38 - - 10.2
03/06:00am -0.2 -8.5 -0.3 99 0.0 W 33 61 18 33 - - 10.2
03/05:30am -0.2 -9.3 -0.3 99 0.0 WSW 37 69 20 37 - - 10.2
03/05:00am -0.1 -8.8 -0.2 99 0.0 W 35 61 19 33 - - 10.2
03/04:30am 0.7 -6.5 0.6 99 0.0 W 28 63 15 34 - - 9.8
03/04:00am 0.8 -7.2 0.7 99 0.0 WSW 32 59 17 32 - - 9.0
03/03:31am 0.8 -6.4 0.7 99 0.0 WSW 28 56 15 30 - - 8.4
03/03:30am 0.8 -6.0 0.7 99 0.0 WSW 26 56 14 30 - - 8.4
03/03:00am 0.9 -8.4 0.8 99 0.0 W 39 59 21 32 - - 7.8
03/02:30am 0.8 -9.4 0.7 99 0.0 WSW 44 93 24 50 - - 7.6
03/02:00am 0.8 -9.2 0.7 99 0.0 WSW 43 83 23 45 - - 7.4
03/01:30am 0.8 -10.2 0.7 99 0.0 WSW 48 89 26 48 - - 7.4
03/01:00am 0.9 -10.5 0.8 99 0.0 WSW 50 78 27 42 - - 7.4
03/12:30am 0.9 -10.1 0.8 99 0.0 WSW 48 78 26 42 - - 7.2
03/12:00am 0.6 -11.2 0.5 99 0.0 WSW 52 96 28 52 - - 7.0
 
Date/Time
EST
Temp
°C
App
Temp
°C
Dew
Point
Rel
Hum
%
Delta-T
°C
Wind Press
QNH
hPa
Press
MSL
hPa
Rain
since 9 am
mm
Dir
 
Spd
km/h
Gust
km/h
Spd
kts
Gust
kts
02/11:30pm 0.7 -10.7 0.6 99 0.0 WSW 50 82 27 44 - - 7.0
02/11:00pm 0.5 -10.9 0.4 99 0.0 W 50 83 27 45 - - 6.8
02/10:30pm 0.5 -10.2 0.4 99 0.0 WSW 46 85 25 46 - - 6.8
02/10:00pm 0.9 -10.5 0.8 99 0.0 W 50 83 27 45 - - 6.6
02/09:30pm 1.0 -9.2 0.9 99 0.0 W 44 69 24 37 - - 6.2
02/09:00pm 0.9 -10.1 0.8 99 0.0 WSW 48 76 26 41 - - 5.8
02/08:30pm 0.8 -11.0 0.7 99 0.0 WSW 52 82 28 44 - - 5.8
02/08:00pm 0.6 -9.7 0.5 99 0.0 WSW 44 83 24 45 - - 5.8
02/07:30pm 0.9 -10.1 0.8 99 0.0 WSW 48 85 26 46 - - 5.8
02/07:00pm 1.1 -10.6 1.0 99 0.0 WSW 52 91 28 49 - - 5.6
02/06:30pm 1.5 -10.5 1.4 99 0.0 WSW 54 93 29 50 - - 5.4
02/06:03pm 2.3 -7.7 2.2 99 0.0 W 44 91 24 49 - - 5.4
02/06:00pm 2.2 -7.8 2.1 99 0.0 W 44 70 24 38 - - 5.2
02/05:30pm 2.6 -7.3 2.5 99 0.0 WSW 44 76 24 41 - - 4.8
02/05:00pm 2.6 -7.3 2.5 99 0.0 W 44 69 24 37 - - 4.4
02/04:34pm 2.9 -6.4 2.8 99 0.0 W 41 61 22 33 - - 4.0
02/04:30pm 2.9 -6.8 2.8 99 0.0 W 43 61 23 33 - - 3.6
02/04:00pm 2.8 -5.8 2.7 99 0.0 W 37 61 20 33 - - 2.6
02/03:30pm 2.7 -7.6 2.6 99 0.0 W 46 70 25 38 - - 2.0
02/03:00pm 2.6 -6.4 2.5 99 0.0 W 39 59 21 32 - - 2.0
02/02:30pm 2.5 -7.5 2.4 99 0.0 W 44 63 24 34 - - 1.2
02/02:00pm 2.5 -7.5 2.4 99 0.0 W 44 72 24 39 - - 1.2
02/01:30pm 2.5 -7.5 2.4 99 0.0 W 44 70 24 38 - - 1.0
02/01:00pm 2.1 -7.7 2.0 99 0.0 W 43 69 23 37 - - 0.8
02/12:30pm 1.8 -7.3 1.7 99 0.0 W 39 65 21 35 - - 0.8
02/12:00pm 1.5 -7.3 1.4 99 0.0 WSW 37 69 20 37 - - 0.8
02/11:30am 1.1 -7.0 1.0 99 0.0 W 33 65 18 35 - - 0.6
02/11:00am 0.8 -6.8 0.7 99 0.0 W 30 59 16 32 - - 0.6
02/10:30am 0.5 -8.1 0.4 99 0.0 WSW 35 59 19 32 - - 0.6
02/10:01am 0.1 -8.5 0.0 99 0.0 WSW 35 54 19 29 - - 0.4
02/10:00am 0.1 -8.9 0.0 99 0.0 WSW 37 54 20 29 - - 0.4
02/09:35am 0.0 -7.3 -0.1 99 0.0 W 28 46 15 25 - - 0.4
02/09:30am 0.0 -7.3 -0.1 99 0.0 W 28 43 15 23 - - 0.2
02/09:00am -0.1 -7.8 -0.2 99 0.0 WSW 30 43 16 23 - - 0.0
02/08:30am -0.1 -9.1 -0.2 99 0.0 WSW 37 57 20 31 - - 0.0
02/08:07am -0.2 -9.3 -0.3 99 0.0 WSW 37 57 20 31 - - 0.0
02/08:00am -0.3 -9.0 -0.4 99 0.0 WSW 35 50 19 27 - - 0.0
02/07:50am -0.3 -9.4 -0.4 99 0.0 WSW 37 57 20 31 - - 0.0
02/07:30am -0.3 -9.0 -0.4 99 0.0 WSW 35 52 19 28 - - 0.0
02/07:00am -0.5 -8.8 -0.6 99 0.0 WSW 33 50 18 27 - - 0.0
02/06:30am -0.6 -9.7 -0.7 99 0.0 WSW 37 54 20 29 - - 0.0
02/06:00am -0.6 -9.3 -0.7 99 0.0 WSW 35 48 19 26 - - 0.0
02/05:40am -0.6 -9.3 -0.7 99 0.0 WSW 35 57 19 31 - - 0.0
02/05:30am -0.5 -9.2 -0.6 99 0.0 WSW 35 50 19 27 - - 0.0
02/05:00am -0.5 -8.8 -0.6 99 0.0 WSW 33 46 18 25 - - 0.0
02/04:30am -0.7 -7.7 -0.8 99 0.0 WSW 26 39 14 21 - - 0.0
02/04:04am -0.8 -9.0 -0.9 99 0.0 WSW 32 54 17 29 - - 0.0
02/04:00am -0.7 -8.9 -0.8 99 0.0 WSW 32 43 17 23 - - 0.0
02/03:46am -0.5 -7.9 -0.6 99 0.0 WSW 28 50 15 27 - - 0.0
02/03:30am -0.7 -7.0 -0.8 99 0.0 WSW 22 39 12 21 - - 0.0
02/03:00am -0.8 -7.5 -0.9 99 0.0 W 24 41 13 22 - - 0.0
02/02:30am -0.8 -9.0 -0.9 99 0.0 WSW 32 41 17 22 - - 0.0
02/02:00am -0.8 -8.2 -0.9 99 0.0 WSW 28 35 15 19 - - 0.0
02/01:30am -0.9 -8.4 -1.2 98 0.1 W 28 35 15 19 - - 0.0
02/01:00am -0.7 -7.4 -1.1 97 0.1 W 24 33 13 18 - - 0.0
02/12:30am -0.8 -7.9 -1.5 95 0.2 WSW 26 33 14 18 - - 0.0
02/12:00am -0.8 -7.9 -1.4 96 0.2 WSW 26 32 14 17 - - 0.0

Other Formats:

Comma delimited format used in spreadsheet applications
http://www.bom.gov.au/fwo/IDV60801/IDV60801.94833.axf

JavaScript Object Notation format (JSON) in row-major order
http://www.bom.gov.au/fwo/IDV60801/IDV60801.94833.json